sensor_id;sensor_type;location;lat;lon;timestamp;P1;durP1;ratioP1;P2;durP2;ratioP2
75054;SDS011;63636;44.746;10.488;2023-06-24T00:01:14;7.35;;;4.60;;
75054;SDS011;63636;44.746;10.488;2023-06-24T00:03:40;8.95;;;4.80;;
75054;SDS011;63636;44.746;10.488;2023-06-24T00:06:06;8.80;;;4.60;;
75054;SDS011;63636;44.746;10.488;2023-06-24T00:08:32;7.93;;;5.13;;
75054;SDS011;63636;44.746;10.488;2023-06-24T00:11:03;8.60;;;5.13;;
75054;SDS011;63636;44.746;10.488;2023-06-24T00:13:28;8.48;;;5.35;;
75054;SDS011;63636;44.746;10.488;2023-06-24T00:15:54;9.40;;;5.18;;
75054;SDS011;63636;44.746;10.488;2023-06-24T00:18:20;7.85;;;5.40;;
75054;SDS011;63636;44.746;10.488;2023-06-24T00:20:45;8.05;;;5.18;;
75054;SDS011;63636;44.746;10.488;2023-06-24T00:23:12;10.18;;;5.80;;
75054;SDS011;63636;44.746;10.488;2023-06-24T00:25:40;7.15;;;5.28;;
75054;SDS011;63636;44.746;10.488;2023-06-24T00:28:05;9.65;;;5.28;;
75054;SDS011;63636;44.746;10.488;2023-06-24T00:30:31;8.13;;;5.32;;
75054;SDS011;63636;44.746;10.488;2023-06-24T00:32:56;8.20;;;5.10;;
75054;SDS011;63636;44.746;10.488;2023-06-24T00:35:23;8.88;;;5.97;;
75054;SDS011;63636;44.746;10.488;2023-06-24T00:37:48;7.95;;;5.43;;
75054;SDS011;63636;44.746;10.488;2023-06-24T00:40:14;9.02;;;6.10;;
75054;SDS011;63636;44.746;10.488;2023-06-24T00:42:41;8.70;;;5.72;;
75054;SDS011;63636;44.746;10.488;2023-06-24T00:45:07;7.95;;;5.68;;
75054;SDS011;63636;44.746;10.488;2023-06-24T00:47:33;10.15;;;5.88;;
75054;SDS011;63636;44.746;10.488;2023-06-24T00:49:59;9.13;;;5.80;;
75054;SDS011;63636;44.746;10.488;2023-06-24T00:52:25;8.57;;;5.60;;
75054;SDS011;63636;44.746;10.488;2023-06-24T00:54:50;8.07;;;5.75;;
75054;SDS011;63636;44.746;10.488;2023-06-24T00:57:17;9.50;;;5.88;;
75054;SDS011;63636;44.746;10.488;2023-06-24T00:59:42;8.73;;;6.15;;
75054;SDS011;63636;44.746;10.488;2023-06-24T01:02:09;9.90;;;6.22;;
75054;SDS011;63636;44.746;10.488;2023-06-24T01:04:35;9.05;;;6.05;;
75054;SDS011;63636;44.746;10.488;2023-06-24T01:07:01;9.05;;;6.05;;
75054;SDS011;63636;44.746;10.488;2023-06-24T01:09:26;9.07;;;6.45;;
75054;SDS011;63636;44.746;10.488;2023-06-24T01:11:53;8.73;;;6.03;;
75054;SDS011;63636;44.746;10.488;2023-06-24T01:14:18;11.15;;;6.10;;
75054;SDS011;63636;44.746;10.488;2023-06-24T01:21:44;7.97;;;5.68;;
75054;SDS011;63636;44.746;10.488;2023-06-24T01:29:47;9.90;;;5.72;;
75054;SDS011;63636;44.746;10.488;2023-06-24T01:32:08;10.48;;;5.55;;
75054;SDS011;63636;44.746;10.488;2023-06-24T01:34:40;8.80;;;5.70;;
75054;SDS011;63636;44.746;10.488;2023-06-24T01:39:46;8.35;;;5.47;;
75054;SDS011;63636;44.746;10.488;2023-06-24T01:42:13;8.77;;;5.50;;
75054;SDS011;63636;44.746;10.488;2023-06-24T01:44:40;8.88;;;5.53;;
75054;SDS011;63636;44.746;10.488;2023-06-24T01:47:08;8.68;;;5.70;;
75054;SDS011;63636;44.746;10.488;2023-06-24T01:49:35;7.70;;;5.40;;
75054;SDS011;63636;44.746;10.488;2023-06-24T01:52:03;8.20;;;5.22;;
75054;SDS011;63636;44.746;10.488;2023-06-24T01:54:30;7.85;;;5.28;;
75054;SDS011;63636;44.746;10.488;2023-06-24T01:56:57;8.38;;;5.45;;
75054;SDS011;63636;44.746;10.488;2023-06-24T01:59:24;9.77;;;5.20;;
75054;SDS011;63636;44.746;10.488;2023-06-24T02:01:50;9.68;;;5.40;;
75054;SDS011;63636;44.746;10.488;2023-06-24T02:04:17;8.27;;;5.50;;
75054;SDS011;63636;44.746;10.488;2023-06-24T02:06:43;9.23;;;5.18;;
75054;SDS011;63636;44.746;10.488;2023-06-24T02:09:09;8.25;;;5.38;;
75054;SDS011;63636;44.746;10.488;2023-06-24T02:11:35;8.52;;;5.40;;
75054;SDS011;63636;44.746;10.488;2023-06-24T02:14:02;8.07;;;5.53;;
75054;SDS011;63636;44.746;10.488;2023-06-24T02:16:28;9.15;;;5.28;;
75054;SDS011;63636;44.746;10.488;2023-06-24T02:18:55;7.97;;;5.63;;
75054;SDS011;63636;44.746;10.488;2023-06-24T02:21:21;10.10;;;5.82;;
75054;SDS011;63636;44.746;10.488;2023-06-24T02:23:48;9.57;;;5.53;;
75054;SDS011;63636;44.746;10.488;2023-06-24T02:26:14;8.55;;;5.20;;
75054;SDS011;63636;44.746;10.488;2023-06-24T02:28:40;9.80;;;5.07;;
75054;SDS011;63636;44.746;10.488;2023-06-24T02:31:06;8.43;;;4.63;;
75054;SDS011;63636;44.746;10.488;2023-06-24T02:33:34;9.88;;;5.55;;
75054;SDS011;63636;44.746;10.488;2023-06-24T02:35:59;8.93;;;5.78;;
75054;SDS011;63636;44.746;10.488;2023-06-24T02:38:25;10.02;;;5.50;;
75054;SDS011;63636;44.746;10.488;2023-06-24T02:40:50;10.88;;;5.50;;
75054;SDS011;63636;44.746;10.488;2023-06-24T02:43:16;8.40;;;5.07;;
75054;SDS011;63636;44.746;10.488;2023-06-24T02:45:42;8.73;;;5.43;;
75054;SDS011;63636;44.746;10.488;2023-06-24T02:48:08;9.10;;;5.45;;
75054;SDS011;63636;44.746;10.488;2023-06-24T02:50:34;8.27;;;5.15;;
75054;SDS011;63636;44.746;10.488;2023-06-24T02:53:01;9.20;;;5.63;;
75054;SDS011;63636;44.746;10.488;2023-06-24T02:55:34;9.48;;;5.53;;
75054;SDS011;63636;44.746;10.488;2023-06-24T02:58:02;9.23;;;5.43;;
75054;SDS011;63636;44.746;10.488;2023-06-24T03:00:40;7.78;;;5.20;;
75054;SDS011;63636;44.746;10.488;2023-06-24T03:03:09;9.02;;;5.60;;
75054;SDS011;63636;44.746;10.488;2023-06-24T03:05:44;8.98;;;5.13;;
75054;SDS011;63636;44.746;10.488;2023-06-24T03:08:14;8.98;;;5.40;;
75054;SDS011;63636;44.746;10.488;2023-06-24T03:10:42;8.30;;;5.47;;
75054;SDS011;63636;44.746;10.488;2023-06-24T03:13:13;8.38;;;5.85;;
75054;SDS011;63636;44.746;10.488;2023-06-24T03:15:43;10.40;;;5.78;;
75054;SDS011;63636;44.746;10.488;2023-06-24T03:18:09;11.38;;;5.85;;
75054;SDS011;63636;44.746;10.488;2023-06-24T03:20:35;9.45;;;5.47;;
75054;SDS011;63636;44.746;10.488;2023-06-24T03:23:06;8.50;;;5.68;;
75054;SDS011;63636;44.746;10.488;2023-06-24T03:25:33;10.35;;;5.78;;
75054;SDS011;63636;44.746;10.488;2023-06-24T03:27:59;9.07;;;5.53;;
75054;SDS011;63636;44.746;10.488;2023-06-24T03:30:27;9.50;;;5.80;;
75054;SDS011;63636;44.746;10.488;2023-06-24T03:32:52;9.20;;;5.97;;
75054;SDS011;63636;44.746;10.488;2023-06-24T03:35:18;9.15;;;6.10;;
75054;SDS011;63636;44.746;10.488;2023-06-24T03:37:43;9.32;;;5.82;;
75054;SDS011;63636;44.746;10.488;2023-06-24T03:40:09;10.00;;;6.10;;
75054;SDS011;63636;44.746;10.488;2023-06-24T03:42:35;9.77;;;5.88;;
75054;SDS011;63636;44.746;10.488;2023-06-24T03:45:01;9.00;;;5.53;;
75054;SDS011;63636;44.746;10.488;2023-06-24T03:47:30;8.90;;;5.82;;
75054;SDS011;63636;44.746;10.488;2023-06-24T03:49:55;9.68;;;5.82;;
75054;SDS011;63636;44.746;10.488;2023-06-24T03:52:21;9.10;;;5.75;;
75054;SDS011;63636;44.746;10.488;2023-06-24T03:54:49;8.93;;;5.55;;
75054;SDS011;63636;44.746;10.488;2023-06-24T03:57:15;9.45;;;5.50;;
75054;SDS011;63636;44.746;10.488;2023-06-24T03:59:40;8.75;;;5.38;;
75054;SDS011;63636;44.746;10.488;2023-06-24T04:02:06;9.00;;;5.15;;
75054;SDS011;63636;44.746;10.488;2023-06-24T04:04:35;9.48;;;5.53;;
75054;SDS011;63636;44.746;10.488;2023-06-24T04:07:02;8.23;;;4.88;;
75054;SDS011;63636;44.746;10.488;2023-06-24T04:09:34;8.07;;;4.82;;
75054;SDS011;63636;44.746;10.488;2023-06-24T04:12:00;8.75;;;5.13;;
75054;SDS011;63636;44.746;10.488;2023-06-24T04:14:32;8.70;;;5.07;;
75054;SDS011;63636;44.746;10.488;2023-06-24T04:16:58;8.02;;;5.22;;
75054;SDS011;63636;44.746;10.488;2023-06-24T04:19:23;10.27;;;5.47;;
75054;SDS011;63636;44.746;10.488;2023-06-24T04:21:49;8.13;;;5.43;;
75054;SDS011;63636;44.746;10.488;2023-06-24T04:24:15;8.02;;;4.85;;
75054;SDS011;63636;44.746;10.488;2023-06-24T04:26:41;8.93;;;5.40;;
75054;SDS011;63636;44.746;10.488;2023-06-24T04:29:07;7.57;;;5.05;;
75054;SDS011;63636;44.746;10.488;2023-06-24T04:31:32;7.93;;;5.20;;
75054;SDS011;63636;44.746;10.488;2023-06-24T04:33:58;8.23;;;4.72;;
75054;SDS011;63636;44.746;10.488;2023-06-24T04:36:24;7.53;;;5.18;;
75054;SDS011;63636;44.746;10.488;2023-06-24T04:38:49;8.73;;;4.72;;
75054;SDS011;63636;44.746;10.488;2023-06-24T04:41:15;9.57;;;5.20;;
75054;SDS011;63636;44.746;10.488;2023-06-24T04:43:40;9.18;;;4.93;;
75054;SDS011;63636;44.746;10.488;2023-06-24T04:46:06;8.65;;;4.70;;
75054;SDS011;63636;44.746;10.488;2023-06-24T04:48:31;7.00;;;4.07;;
75054;SDS011;63636;44.746;10.488;2023-06-24T04:50:57;12.18;;;4.65;;
75054;SDS011;63636;44.746;10.488;2023-06-24T04:56:30;7.63;;;4.72;;
75054;SDS011;63636;44.746;10.488;2023-06-24T04:58:55;8.43;;;4.80;;
75054;SDS011;63636;44.746;10.488;2023-06-24T05:01:21;7.57;;;4.35;;
75054;SDS011;63636;44.746;10.488;2023-06-24T05:03:47;7.90;;;4.63;;
75054;SDS011;63636;44.746;10.488;2023-06-24T05:06:12;7.10;;;4.50;;
75054;SDS011;63636;44.746;10.488;2023-06-24T05:08:38;8.60;;;4.63;;
75054;SDS011;63636;44.746;10.488;2023-06-24T05:11:03;6.70;;;4.40;;
75054;SDS011;63636;44.746;10.488;2023-06-24T05:13:29;6.53;;;4.13;;
75054;SDS011;63636;44.746;10.488;2023-06-24T05:15:54;8.90;;;3.83;;
75054;SDS011;63636;44.746;10.488;2023-06-24T05:18:20;8.05;;;4.10;;
75054;SDS011;63636;44.746;10.488;2023-06-24T05:20:46;7.90;;;4.00;;
75054;SDS011;63636;44.746;10.488;2023-06-24T05:23:11;6.80;;;3.72;;
75054;SDS011;63636;44.746;10.488;2023-06-24T05:25:37;7.93;;;3.88;;
75054;SDS011;63636;44.746;10.488;2023-06-24T05:28:05;7.70;;;3.75;;
75054;SDS011;63636;44.746;10.488;2023-06-24T05:30:31;7.30;;;4.18;;
75054;SDS011;63636;44.746;10.488;2023-06-24T05:32:56;6.22;;;3.72;;
75054;SDS011;63636;44.746;10.488;2023-06-24T05:35:22;7.38;;;4.05;;
75054;SDS011;63636;44.746;10.488;2023-06-24T05:37:47;6.35;;;3.58;;
75054;SDS011;63636;44.746;10.488;2023-06-24T05:40:13;6.43;;;3.80;;
75054;SDS011;63636;44.746;10.488;2023-06-24T05:42:39;7.45;;;3.70;;
75054;SDS011;63636;44.746;10.488;2023-06-24T05:45:05;7.10;;;3.85;;
75054;SDS011;63636;44.746;10.488;2023-06-24T05:47:31;7.88;;;3.88;;
75054;SDS011;63636;44.746;10.488;2023-06-24T05:49:57;6.00;;;3.65;;
75054;SDS011;63636;44.746;10.488;2023-06-24T05:52:23;6.43;;;3.65;;
75054;SDS011;63636;44.746;10.488;2023-06-24T05:54:48;8.32;;;4.20;;
75054;SDS011;63636;44.746;10.488;2023-06-24T05:57:14;8.82;;;4.10;;
75054;SDS011;63636;44.746;10.488;2023-06-24T05:59:39;8.73;;;3.90;;
75054;SDS011;63636;44.746;10.488;2023-06-24T06:02:05;9.07;;;3.90;;
75054;SDS011;63636;44.746;10.488;2023-06-24T06:04:30;7.28;;;4.10;;
75054;SDS011;63636;44.746;10.488;2023-06-24T06:06:56;8.32;;;3.92;;
75054;SDS011;63636;44.746;10.488;2023-06-24T06:09:22;6.65;;;3.97;;
75054;SDS011;63636;44.746;10.488;2023-06-24T06:11:47;7.00;;;4.45;;
75054;SDS011;63636;44.746;10.488;2023-06-24T06:14:13;7.85;;;3.90;;
75054;SDS011;63636;44.746;10.488;2023-06-24T06:16:38;8.60;;;3.80;;
75054;SDS011;63636;44.746;10.488;2023-06-24T06:19:04;7.57;;;3.90;;
75054;SDS011;63636;44.746;10.488;2023-06-24T06:21:29;9.50;;;4.45;;
75054;SDS011;63636;44.746;10.488;2023-06-24T06:23:55;7.60;;;4.20;;
75054;SDS011;63636;44.746;10.488;2023-06-24T06:26:21;9.50;;;4.60;;
75054;SDS011;63636;44.746;10.488;2023-06-24T06:28:46;9.55;;;4.78;;
75054;SDS011;63636;44.746;10.488;2023-06-24T06:31:15;8.48;;;4.68;;
75054;SDS011;63636;44.746;10.488;2023-06-24T06:33:40;10.52;;;5.07;;
75054;SDS011;63636;44.746;10.488;2023-06-24T06:36:09;9.05;;;4.68;;
75054;SDS011;63636;44.746;10.488;2023-06-24T06:38:34;9.80;;;5.13;;
75054;SDS011;63636;44.746;10.488;2023-06-24T06:41:00;7.40;;;5.07;;
75054;SDS011;63636;44.746;10.488;2023-06-24T06:43:26;10.85;;;5.25;;
75054;SDS011;63636;44.746;10.488;2023-06-24T06:45:51;7.90;;;5.10;;
75054;SDS011;63636;44.746;10.488;2023-06-24T06:48:17;9.68;;;5.50;;
75054;SDS011;63636;44.746;10.488;2023-06-24T06:50:43;8.18;;;5.15;;
75054;SDS011;63636;44.746;10.488;2023-06-24T06:53:09;8.80;;;5.30;;
75054;SDS011;63636;44.746;10.488;2023-06-24T06:55:35;7.85;;;5.10;;
75054;SDS011;63636;44.746;10.488;2023-06-24T06:58:04;8.73;;;5.20;;
75054;SDS011;63636;44.746;10.488;2023-06-24T07:00:30;11.02;;;5.28;;
75054;SDS011;63636;44.746;10.488;2023-06-24T07:02:55;9.68;;;5.10;;
75054;SDS011;63636;44.746;10.488;2023-06-24T07:05:30;8.10;;;4.68;;
75054;SDS011;63636;44.746;10.488;2023-06-24T07:07:56;10.65;;;5.22;;
75054;SDS011;63636;44.746;10.488;2023-06-24T07:10:22;7.40;;;4.70;;
75054;SDS011;63636;44.746;10.488;2023-06-24T07:12:47;7.82;;;5.20;;
75054;SDS011;63636;44.746;10.488;2023-06-24T07:15:14;8.20;;;4.82;;
75054;SDS011;63636;44.746;10.488;2023-06-24T07:17:40;8.48;;;5.25;;
75054;SDS011;63636;44.746;10.488;2023-06-24T07:20:07;7.13;;;4.68;;
75054;SDS011;63636;44.746;10.488;2023-06-24T07:22:32;9.20;;;4.70;;
75054;SDS011;63636;44.746;10.488;2023-06-24T07:24:58;10.18;;;4.85;;
75054;SDS011;63636;44.746;10.488;2023-06-24T07:27:25;8.45;;;4.40;;
75054;SDS011;63636;44.746;10.488;2023-06-24T07:29:51;8.00;;;4.30;;
75054;SDS011;63636;44.746;10.488;2023-06-24T07:32:17;6.22;;;3.80;;
75054;SDS011;63636;44.746;10.488;2023-06-24T07:34:42;7.05;;;3.85;;
75054;SDS011;63636;44.746;10.488;2023-06-24T07:37:08;8.90;;;3.65;;
75054;SDS011;63636;44.746;10.488;2023-06-24T07:39:33;6.22;;;3.30;;
75054;SDS011;63636;44.746;10.488;2023-06-24T07:41:59;6.78;;;3.17;;
75054;SDS011;63636;44.746;10.488;2023-06-24T07:44:24;6.65;;;3.22;;
75054;SDS011;63636;44.746;10.488;2023-06-24T07:46:50;4.63;;;2.95;;
75054;SDS011;63636;44.746;10.488;2023-06-24T07:49:17;4.70;;;2.75;;
75054;SDS011;63636;44.746;10.488;2023-06-24T07:51:42;4.55;;;2.70;;
75054;SDS011;63636;44.746;10.488;2023-06-24T07:54:10;5.03;;;2.65;;
75054;SDS011;63636;44.746;10.488;2023-06-24T07:56:36;4.00;;;2.38;;
75054;SDS011;63636;44.746;10.488;2023-06-24T07:59:06;5.45;;;2.60;;
75054;SDS011;63636;44.746;10.488;2023-06-24T08:01:34;4.30;;;3.10;;
75054;SDS011;63636;44.746;10.488;2023-06-24T08:04:00;4.43;;;2.80;;
75054;SDS011;63636;44.746;10.488;2023-06-24T08:06:26;5.65;;;2.90;;
75054;SDS011;63636;44.746;10.488;2023-06-24T08:08:52;5.10;;;2.70;;
75054;SDS011;63636;44.746;10.488;2023-06-24T08:11:18;6.00;;;2.88;;
75054;SDS011;63636;44.746;10.488;2023-06-24T08:13:47;5.68;;;2.65;;
75054;SDS011;63636;44.746;10.488;2023-06-24T08:16:15;4.53;;;2.50;;
75054;SDS011;63636;44.746;10.488;2023-06-24T08:18:41;5.60;;;2.90;;
75054;SDS011;63636;44.746;10.488;2023-06-24T08:21:06;6.75;;;3.00;;
75054;SDS011;63636;44.746;10.488;2023-06-24T08:23:32;6.47;;;3.00;;
75054;SDS011;63636;44.746;10.488;2023-06-24T08:25:57;5.82;;;2.92;;
75054;SDS011;63636;44.746;10.488;2023-06-24T08:28:23;4.93;;;2.63;;
75054;SDS011;63636;44.746;10.488;2023-06-24T08:30:48;5.07;;;2.90;;
75054;SDS011;63636;44.746;10.488;2023-06-24T08:33:14;4.95;;;2.47;;
75054;SDS011;63636;44.746;10.488;2023-06-24T08:35:40;5.18;;;2.70;;
75054;SDS011;63636;44.746;10.488;2023-06-24T08:38:05;6.25;;;2.80;;
75054;SDS011;63636;44.746;10.488;2023-06-24T08:40:31;6.00;;;3.10;;
75054;SDS011;63636;44.746;10.488;2023-06-24T08:42:56;4.60;;;2.63;;
75054;SDS011;63636;44.746;10.488;2023-06-24T08:45:23;5.45;;;3.08;;
75054;SDS011;63636;44.746;10.488;2023-06-24T08:47:49;6.13;;;3.22;;
75054;SDS011;63636;44.746;10.488;2023-06-24T08:50:15;4.57;;;3.03;;
75054;SDS011;63636;44.746;10.488;2023-06-24T08:52:51;4.45;;;2.78;;
75054;SDS011;63636;44.746;10.488;2023-06-24T08:55:17;4.93;;;2.85;;
75054;SDS011;63636;44.746;10.488;2023-06-24T08:57:46;6.18;;;2.80;;
75054;SDS011;63636;44.746;10.488;2023-06-24T09:00:11;4.65;;;2.67;;
75054;SDS011;63636;44.746;10.488;2023-06-24T09:02:38;4.88;;;2.75;;
75054;SDS011;63636;44.746;10.488;2023-06-24T09:05:07;4.80;;;2.47;;
75054;SDS011;63636;44.746;10.488;2023-06-24T09:07:33;5.63;;;2.70;;
75054;SDS011;63636;44.746;10.488;2023-06-24T09:09:59;6.18;;;2.80;;
75054;SDS011;63636;44.746;10.488;2023-06-24T09:12:26;4.30;;;2.60;;
75054;SDS011;63636;44.746;10.488;2023-06-24T09:14:52;6.40;;;3.17;;
75054;SDS011;63636;44.746;10.488;2023-06-24T09:17:18;4.43;;;2.45;;
75054;SDS011;63636;44.746;10.488;2023-06-24T09:19:43;5.50;;;2.80;;
75054;SDS011;63636;44.746;10.488;2023-06-24T09:22:09;4.45;;;2.42;;
75054;SDS011;63636;44.746;10.488;2023-06-24T09:24:43;5.47;;;2.75;;
75054;SDS011;63636;44.746;10.488;2023-06-24T09:27:13;3.88;;;2.25;;
75054;SDS011;63636;44.746;10.488;2023-06-24T09:29:40;5.07;;;2.42;;
75054;SDS011;63636;44.746;10.488;2023-06-24T09:32:06;4.47;;;2.45;;
75054;SDS011;63636;44.746;10.488;2023-06-24T09:34:32;5.43;;;2.50;;
75054;SDS011;63636;44.746;10.488;2023-06-24T09:36:58;5.10;;;2.30;;
75054;SDS011;63636;44.746;10.488;2023-06-24T09:39:24;3.33;;;2.40;;
75054;SDS011;63636;44.746;10.488;2023-06-24T09:41:59;5.00;;;2.42;;
75054;SDS011;63636;44.746;10.488;2023-06-24T09:44:26;3.85;;;2.35;;
75054;SDS011;63636;44.746;10.488;2023-06-24T09:46:52;2.85;;;2.10;;
75054;SDS011;63636;44.746;10.488;2023-06-24T09:49:18;3.92;;;2.30;;
75054;SDS011;63636;44.746;10.488;2023-06-24T09:51:44;5.05;;;2.53;;
75054;SDS011;63636;44.746;10.488;2023-06-24T09:54:11;4.18;;;2.20;;
75054;SDS011;63636;44.746;10.488;2023-06-24T09:56:37;4.63;;;2.13;;
75054;SDS011;63636;44.746;10.488;2023-06-24T09:59:04;3.78;;;2.10;;
75054;SDS011;63636;44.746;10.488;2023-06-24T10:01:31;6.88;;;2.35;;
75054;SDS011;63636;44.746;10.488;2023-06-24T10:03:58;3.75;;;2.30;;
75054;SDS011;63636;44.746;10.488;2023-06-24T10:06:25;5.03;;;2.35;;
75054;SDS011;63636;44.746;10.488;2023-06-24T10:08:51;4.32;;;2.28;;
75054;SDS011;63636;44.746;10.488;2023-06-24T10:11:17;3.42;;;2.08;;
75054;SDS011;63636;44.746;10.488;2023-06-24T10:13:43;4.10;;;2.17;;
75054;SDS011;63636;44.746;10.488;2023-06-24T10:16:08;3.80;;;2.22;;
75054;SDS011;63636;44.746;10.488;2023-06-24T10:18:35;3.72;;;2.15;;
75054;SDS011;63636;44.746;10.488;2023-06-24T10:21:01;2.75;;;1.92;;
75054;SDS011;63636;44.746;10.488;2023-06-24T10:23:41;2.58;;;2.28;;
75054;SDS011;63636;44.746;10.488;2023-06-24T10:26:07;2.90;;;2.00;;
75054;SDS011;63636;44.746;10.488;2023-06-24T10:29:05;2.92;;;1.90;;
75054;SDS011;63636;44.746;10.488;2023-06-24T10:31:18;3.63;;;2.10;;
75054;SDS011;63636;44.746;10.488;2023-06-24T10:33:52;3.13;;;2.35;;
75054;SDS011;63636;44.746;10.488;2023-06-24T10:36:33;3.08;;;1.80;;
75054;SDS011;63636;44.746;10.488;2023-06-24T10:38:59;3.10;;;2.00;;
75054;SDS011;63636;44.746;10.488;2023-06-24T10:41:24;4.75;;;2.10;;
75054;SDS011;63636;44.746;10.488;2023-06-24T10:43:50;3.13;;;2.13;;
75054;SDS011;63636;44.746;10.488;2023-06-24T10:46:16;3.22;;;2.00;;
75054;SDS011;63636;44.746;10.488;2023-06-24T10:48:41;2.63;;;1.90;;
75054;SDS011;63636;44.746;10.488;2023-06-24T10:51:07;3.65;;;2.08;;
75054;SDS011;63636;44.746;10.488;2023-06-24T10:53:33;3.50;;;2.10;;
75054;SDS011;63636;44.746;10.488;2023-06-24T10:55:58;3.10;;;2.25;;
75054;SDS011;63636;44.746;10.488;2023-06-24T10:58:24;4.15;;;2.30;;
75054;SDS011;63636;44.746;10.488;2023-06-24T11:00:50;4.22;;;2.50;;
75054;SDS011;63636;44.746;10.488;2023-06-24T11:03:16;4.10;;;2.30;;
75054;SDS011;63636;44.746;10.488;2023-06-24T11:05:43;4.15;;;2.45;;
75054;SDS011;63636;44.746;10.488;2023-06-24T11:08:09;4.43;;;2.30;;
75054;SDS011;63636;44.746;10.488;2023-06-24T11:10:45;4.10;;;2.40;;
75054;SDS011;63636;44.746;10.488;2023-06-24T11:13:10;4.28;;;2.40;;
75054;SDS011;63636;44.746;10.488;2023-06-24T11:15:36;4.28;;;2.22;;
75054;SDS011;63636;44.746;10.488;2023-06-24T11:18:03;3.35;;;2.15;;
75054;SDS011;63636;44.746;10.488;2023-06-24T11:20:29;4.43;;;2.30;;
75054;SDS011;63636;44.746;10.488;2023-06-24T11:22:55;3.00;;;2.08;;
75054;SDS011;63636;44.746;10.488;2023-06-24T11:25:21;3.20;;;2.10;;
75054;SDS011;63636;44.746;10.488;2023-06-24T11:27:47;2.90;;;2.13;;
75054;SDS011;63636;44.746;10.488;2023-06-24T11:30:13;3.13;;;2.17;;
75054;SDS011;63636;44.746;10.488;2023-06-24T11:32:39;3.00;;;2.20;;
75054;SDS011;63636;44.746;10.488;2023-06-24T11:35:05;3.47;;;2.17;;
75054;SDS011;63636;44.746;10.488;2023-06-24T11:37:31;3.70;;;2.30;;
75054;SDS011;63636;44.746;10.488;2023-06-24T11:40:03;3.08;;;2.10;;
75054;SDS011;63636;44.746;10.488;2023-06-24T11:42:30;5.40;;;2.30;;
75054;SDS011;63636;44.746;10.488;2023-06-24T11:44:59;3.38;;;2.30;;
75054;SDS011;63636;44.746;10.488;2023-06-24T11:47:25;3.47;;;2.15;;
75054;SDS011;63636;44.746;10.488;2023-06-24T11:49:52;4.30;;;2.13;;
75054;SDS011;63636;44.746;10.488;2023-06-24T11:52:27;4.22;;;2.22;;
75054;SDS011;63636;44.746;10.488;2023-06-24T11:54:57;4.95;;;2.08;;
75054;SDS011;63636;44.746;10.488;2023-06-24T11:57:46;5.07;;;2.40;;
75054;SDS011;63636;44.746;10.488;2023-06-24T12:00:12;2.45;;;2.03;;
75054;SDS011;63636;44.746;10.488;2023-06-24T12:02:37;2.67;;;1.83;;
75054;SDS011;63636;44.746;10.488;2023-06-24T12:05:03;2.75;;;1.85;;
75054;SDS011;63636;44.746;10.488;2023-06-24T12:07:29;2.58;;;1.90;;
75054;SDS011;63636;44.746;10.488;2023-06-24T12:09:54;2.72;;;1.70;;
75054;SDS011;63636;44.746;10.488;2023-06-24T12:12:20;4.32;;;2.00;;
75054;SDS011;63636;44.746;10.488;2023-06-24T12:14:46;3.13;;;1.88;;
75054;SDS011;63636;44.746;10.488;2023-06-24T12:17:12;4.78;;;2.05;;
75054;SDS011;63636;44.746;10.488;2023-06-24T12:19:38;4.07;;;1.75;;
75054;SDS011;63636;44.746;10.488;2023-06-24T12:22:04;4.15;;;2.10;;
75054;SDS011;63636;44.746;10.488;2023-06-24T12:24:29;2.60;;;1.77;;
75054;SDS011;63636;44.746;10.488;2023-06-24T12:26:55;2.33;;;1.60;;
75054;SDS011;63636;44.746;10.488;2023-06-24T12:29:21;2.58;;;1.70;;
75054;SDS011;63636;44.746;10.488;2023-06-24T12:31:47;2.50;;;1.80;;
75054;SDS011;63636;44.746;10.488;2023-06-24T12:34:12;2.40;;;1.60;;
75054;SDS011;63636;44.746;10.488;2023-06-24T12:36:38;5.00;;;2.00;;
75054;SDS011;63636;44.746;10.488;2023-06-24T12:39:04;2.78;;;1.77;;
75054;SDS011;63636;44.746;10.488;2023-06-24T12:41:29;4.13;;;1.80;;
75054;SDS011;63636;44.746;10.488;2023-06-24T12:43:55;2.45;;;1.80;;
75054;SDS011;63636;44.746;10.488;2023-06-24T12:46:20;3.25;;;1.85;;
75054;SDS011;63636;44.746;10.488;2023-06-24T12:48:46;4.13;;;1.98;;
75054;SDS011;63636;44.746;10.488;2023-06-24T12:51:11;2.63;;;1.73;;
75054;SDS011;63636;44.746;10.488;2023-06-24T12:53:37;1.85;;;1.50;;
75054;SDS011;63636;44.746;10.488;2023-06-24T12:56:03;3.03;;;1.80;;
75054;SDS011;63636;44.746;10.488;2023-06-24T12:58:28;2.55;;;1.70;;
75054;SDS011;63636;44.746;10.488;2023-06-24T13:00:54;2.97;;;1.70;;
75054;SDS011;63636;44.746;10.488;2023-06-24T13:03:20;2.38;;;1.45;;
75054;SDS011;63636;44.746;10.488;2023-06-24T13:05:45;2.20;;;1.65;;
75054;SDS011;63636;44.746;10.488;2023-06-24T13:08:11;3.83;;;1.90;;
75054;SDS011;63636;44.746;10.488;2023-06-24T13:10:36;3.13;;;1.90;;
75054;SDS011;63636;44.746;10.488;2023-06-24T13:13:03;2.90;;;1.83;;
75054;SDS011;63636;44.746;10.488;2023-06-24T13:15:29;2.45;;;1.70;;
75054;SDS011;63636;44.746;10.488;2023-06-24T13:17:54;1.73;;;1.42;;
75054;SDS011;63636;44.746;10.488;2023-06-24T13:20:20;2.38;;;1.60;;
75054;SDS011;63636;44.746;10.488;2023-06-24T13:22:45;2.35;;;1.60;;
75054;SDS011;63636;44.746;10.488;2023-06-24T13:25:11;1.70;;;1.40;;
75054;SDS011;63636;44.746;10.488;2023-06-24T13:27:36;2.75;;;1.80;;
75054;SDS011;63636;44.746;10.488;2023-06-24T13:30:02;2.80;;;1.70;;
75054;SDS011;63636;44.746;10.488;2023-06-24T13:32:29;2.10;;;1.50;;
75054;SDS011;63636;44.746;10.488;2023-06-24T13:34:55;1.83;;;1.33;;
75054;SDS011;63636;44.746;10.488;2023-06-24T13:37:21;3.13;;;1.45;;
75054;SDS011;63636;44.746;10.488;2023-06-24T13:39:46;5.38;;;1.70;;
75054;SDS011;63636;44.746;10.488;2023-06-24T13:42:12;2.63;;;1.70;;
75054;SDS011;63636;44.746;10.488;2023-06-24T13:44:38;2.78;;;1.73;;
75054;SDS011;63636;44.746;10.488;2023-06-24T13:47:04;2.80;;;1.40;;
75054;SDS011;63636;44.746;10.488;2023-06-24T13:49:29;1.98;;;1.48;;
75054;SDS011;63636;44.746;10.488;2023-06-24T13:51:55;1.85;;;1.60;;
75054;SDS011;63636;44.746;10.488;2023-06-24T13:54:21;3.63;;;1.63;;
75054;SDS011;63636;44.746;10.488;2023-06-24T13:56:46;2.72;;;1.67;;
75054;SDS011;63636;44.746;10.488;2023-06-24T13:59:12;1.88;;;1.50;;
75054;SDS011;63636;44.746;10.488;2023-06-24T14:01:37;3.47;;;1.40;;
75054;SDS011;63636;44.746;10.488;2023-06-24T14:04:03;4.28;;;1.60;;
75054;SDS011;63636;44.746;10.488;2023-06-24T14:06:28;2.42;;;1.65;;
75054;SDS011;63636;44.746;10.488;2023-06-24T14:08:54;4.18;;;1.48;;
75054;SDS011;63636;44.746;10.488;2023-06-24T14:11:20;2.65;;;1.30;;
75054;SDS011;63636;44.746;10.488;2023-06-24T14:13:45;2.58;;;1.80;;
75054;SDS011;63636;44.746;10.488;2023-06-24T14:16:11;2.40;;;1.63;;
75054;SDS011;63636;44.746;10.488;2023-06-24T14:18:37;2.50;;;1.50;;
75054;SDS011;63636;44.746;10.488;2023-06-24T14:21:03;2.78;;;1.67;;
75054;SDS011;63636;44.746;10.488;2023-06-24T14:23:29;2.20;;;1.40;;
75054;SDS011;63636;44.746;10.488;2023-06-24T14:25:55;4.22;;;1.80;;
75054;SDS011;63636;44.746;10.488;2023-06-24T14:28:21;2.35;;;1.70;;
75054;SDS011;63636;44.746;10.488;2023-06-24T14:30:47;2.22;;;1.60;;
75054;SDS011;63636;44.746;10.488;2023-06-24T14:33:13;5.22;;;1.60;;
75054;SDS011;63636;44.746;10.488;2023-06-24T14:35:38;2.58;;;1.70;;
75054;SDS011;63636;44.746;10.488;2023-06-24T14:38:04;4.95;;;1.80;;
75054;SDS011;63636;44.746;10.488;2023-06-24T14:40:30;2.72;;;1.65;;
75054;SDS011;63636;44.746;10.488;2023-06-24T14:42:56;6.13;;;1.88;;
75054;SDS011;63636;44.746;10.488;2023-06-24T14:45:21;3.30;;;1.70;;